sensor_id;sensor_type;location;lat;lon;timestamp;P1;durP1;ratioP1;P2;durP2;ratioP2
2201;SDS011;1107;48.654;9.250;2022-07-29T00:00:31;11.77;;;11.07;;
2201;SDS011;1107;48.654;9.250;2022-07-29T00:02:58;11.90;;;11.20;;
2201;SDS011;1107;48.654;9.250;2022-07-29T00:05:25;10.47;;;10.07;;
2201;SDS011;1107;48.654;9.250;2022-07-29T00:07:52;11.10;;;10.30;;
2201;SDS011;1107;48.654;9.250;2022-07-29T00:10:20;11.83;;;11.13;;
2201;SDS011;1107;48.654;9.250;2022-07-29T00:12:47;11.70;;;11.03;;
2201;SDS011;1107;48.654;9.250;2022-07-29T00:15:14;12.00;;;11.30;;
2201;SDS011;1107;48.654;9.250;2022-07-29T00:17:42;11.60;;;11.00;;
2201;SDS011;1107;48.654;9.250;2022-07-29T00:20:09;11.60;;;10.90;;
2201;SDS011;1107;48.654;9.250;2022-07-29T00:22:37;10.87;;;10.27;;
2201;SDS011;1107;48.654;9.250;2022-07-29T00:25:04;10.47;;;9.97;;
2201;SDS011;1107;48.654;9.250;2022-07-29T00:27:31;11.80;;;10.77;;
2201;SDS011;1107;48.654;9.250;2022-07-29T00:29:58;11.83;;;11.23;;
2201;SDS011;1107;48.654;9.250;2022-07-29T00:32:26;10.75;;;10.25;;
2201;SDS011;1107;48.654;9.250;2022-07-29T00:34:54;11.17;;;10.57;;
2201;SDS011;1107;48.654;9.250;2022-07-29T00:37:39;8.90;;;8.60;;
2201;SDS011;1107;48.654;9.250;2022-07-29T00:40:07;11.00;;;10.20;;
2201;SDS011;1107;48.654;9.250;2022-07-29T00:42:41;11.20;;;10.30;;
2201;SDS011;1107;48.654;9.250;2022-07-29T00:45:09;10.10;;;9.60;;
2201;SDS011;1107;48.654;9.250;2022-07-29T00:47:37;12.17;;;11.40;;
2201;SDS011;1107;48.654;9.250;2022-07-29T00:50:07;11.77;;;11.07;;
2201;SDS011;1107;48.654;9.250;2022-07-29T00:52:44;10.73;;;10.33;;
2201;SDS011;1107;48.654;9.250;2022-07-29T00:55:12;16.60;;;10.90;;
2201;SDS011;1107;48.654;9.250;2022-07-29T00:57:41;11.03;;;10.50;;
2201;SDS011;1107;48.654;9.250;2022-07-29T01:00:10;11.27;;;10.67;;
2201;SDS011;1107;48.654;9.250;2022-07-29T01:02:38;10.53;;;10.13;;
2201;SDS011;1107;48.654;9.250;2022-07-29T01:05:07;11.50;;;10.80;;
2201;SDS011;1107;48.654;9.250;2022-07-29T01:07:34;10.47;;;10.00;;
2201;SDS011;1107;48.654;9.250;2022-07-29T01:10:03;10.07;;;9.60;;
2201;SDS011;1107;48.654;9.250;2022-07-29T01:12:33;10.93;;;10.30;;
2201;SDS011;1107;48.654;9.250;2022-07-29T01:15:01;10.57;;;10.07;;
2201;SDS011;1107;48.654;9.250;2022-07-29T01:17:32;10.70;;;9.93;;
2201;SDS011;1107;48.654;9.250;2022-07-29T01:20:05;11.17;;;10.67;;
2201;SDS011;1107;48.654;9.250;2022-07-29T01:25:42;10.03;;;9.63;;
2201;SDS011;1107;48.654;9.250;2022-07-29T01:31:29;10.30;;;9.90;;
2201;SDS011;1107;48.654;9.250;2022-07-29T01:34:02;10.43;;;9.90;;
2201;SDS011;1107;48.654;9.250;2022-07-29T01:36:34;10.30;;;9.80;;
2201;SDS011;1107;48.654;9.250;2022-07-29T01:39:05;10.63;;;10.13;;
2201;SDS011;1107;48.654;9.250;2022-07-29T01:41:36;10.70;;;10.00;;
2201;SDS011;1107;48.654;9.250;2022-07-29T01:44:22;10.53;;;10.03;;
2201;SDS011;1107;48.654;9.250;2022-07-29T01:46:55;9.83;;;9.33;;
2201;SDS011;1107;48.654;9.250;2022-07-29T01:49:27;10.63;;;10.10;;
2201;SDS011;1107;48.654;9.250;2022-07-29T01:51:57;9.40;;;9.00;;
2201;SDS011;1107;48.654;9.250;2022-07-29T01:54:26;9.90;;;9.40;;
2201;SDS011;1107;48.654;9.250;2022-07-29T01:56:58;9.23;;;8.63;;
2201;SDS011;1107;48.654;9.250;2022-07-29T01:59:28;10.37;;;8.97;;
2201;SDS011;1107;48.654;9.250;2022-07-29T02:01:57;9.50;;;8.90;;
2201;SDS011;1107;48.654;9.250;2022-07-29T02:04:25;8.40;;;8.10;;
2201;SDS011;1107;48.654;9.250;2022-07-29T02:06:55;9.10;;;8.80;;
2201;SDS011;1107;48.654;9.250;2022-07-29T02:09:26;8.67;;;8.27;;
2201;SDS011;1107;48.654;9.250;2022-07-29T02:11:55;9.90;;;9.20;;
2201;SDS011;1107;48.654;9.250;2022-07-29T02:14:23;9.00;;;8.57;;
2201;SDS011;1107;48.654;9.250;2022-07-29T02:16:54;11.80;;;8.90;;
2201;SDS011;1107;48.654;9.250;2022-07-29T02:19:24;9.50;;;8.90;;
2201;SDS011;1107;48.654;9.250;2022-07-29T02:21:52;9.03;;;8.73;;
2201;SDS011;1107;48.654;9.250;2022-07-29T02:24:21;11.73;;;10.00;;
2201;SDS011;1107;48.654;9.250;2022-07-29T02:26:49;9.80;;;9.07;;
2201;SDS011;1107;48.654;9.250;2022-07-29T02:29:19;10.43;;;9.73;;
2201;SDS011;1107;48.654;9.250;2022-07-29T02:31:48;10.00;;;9.50;;
2201;SDS011;1107;48.654;9.250;2022-07-29T02:34:18;9.57;;;9.13;;
2201;SDS011;1107;48.654;9.250;2022-07-29T02:36:47;9.47;;;8.93;;
2201;SDS011;1107;48.654;9.250;2022-07-29T02:39:15;11.43;;;10.70;;
2201;SDS011;1107;48.654;9.250;2022-07-29T02:41:44;10.13;;;9.33;;
2201;SDS011;1107;48.654;9.250;2022-07-29T02:44:13;10.07;;;9.53;;
2201;SDS011;1107;48.654;9.250;2022-07-29T02:46:43;10.50;;;9.80;;
2201;SDS011;1107;48.654;9.250;2022-07-29T02:49:15;9.50;;;9.00;;
2201;SDS011;1107;48.654;9.250;2022-07-29T02:51:53;10.40;;;9.90;;
2201;SDS011;1107;48.654;9.250;2022-07-29T02:54:26;9.73;;;9.33;;
2201;SDS011;1107;48.654;9.250;2022-07-29T02:56:59;9.33;;;8.70;;
2201;SDS011;1107;48.654;9.250;2022-07-29T02:59:30;9.70;;;9.20;;
2201;SDS011;1107;48.654;9.250;2022-07-29T03:02:00;9.00;;;8.70;;
2201;SDS011;1107;48.654;9.250;2022-07-29T03:04:32;9.33;;;9.03;;
2201;SDS011;1107;48.654;9.250;2022-07-29T03:07:00;10.20;;;9.70;;
2201;SDS011;1107;48.654;9.250;2022-07-29T03:09:28;10.43;;;9.67;;
2201;SDS011;1107;48.654;9.250;2022-07-29T03:11:56;10.00;;;9.60;;
2201;SDS011;1107;48.654;9.250;2022-07-29T03:14:23;10.83;;;9.97;;
2201;SDS011;1107;48.654;9.250;2022-07-29T03:16:51;10.43;;;9.83;;
2201;SDS011;1107;48.654;9.250;2022-07-29T03:19:19;11.13;;;10.53;;
2201;SDS011;1107;48.654;9.250;2022-07-29T03:21:48;11.67;;;10.87;;
2201;SDS011;1107;48.654;9.250;2022-07-29T03:24:25;11.47;;;10.60;;
2201;SDS011;1107;48.654;9.250;2022-07-29T03:26:54;10.63;;;10.23;;
2201;SDS011;1107;48.654;9.250;2022-07-29T03:29:22;10.70;;;10.20;;
2201;SDS011;1107;48.654;9.250;2022-07-29T03:31:49;11.40;;;10.70;;
2201;SDS011;1107;48.654;9.250;2022-07-29T03:34:16;10.93;;;10.43;;
2201;SDS011;1107;48.654;9.250;2022-07-29T03:36:43;10.70;;;10.10;;
2201;SDS011;1107;48.654;9.250;2022-07-29T03:39:12;10.00;;;9.60;;
2201;SDS011;1107;48.654;9.250;2022-07-29T03:41:42;10.27;;;9.83;;
2201;SDS011;1107;48.654;9.250;2022-07-29T03:44:10;11.00;;;10.50;;
2201;SDS011;1107;48.654;9.250;2022-07-29T03:46:38;9.30;;;9.00;;
2201;SDS011;1107;48.654;9.250;2022-07-29T03:49:07;11.37;;;10.83;;
2201;SDS011;1107;48.654;9.250;2022-07-29T03:51:35;11.63;;;11.00;;
2201;SDS011;1107;48.654;9.250;2022-07-29T03:54:04;10.57;;;10.17;;
2201;SDS011;1107;48.654;9.250;2022-07-29T03:56:34;11.80;;;11.10;;
2201;SDS011;1107;48.654;9.250;2022-07-29T03:59:05;10.97;;;10.40;;
2201;SDS011;1107;48.654;9.250;2022-07-29T04:01:33;11.07;;;10.60;;
2201;SDS011;1107;48.654;9.250;2022-07-29T04:04:00;11.67;;;10.87;;
2201;SDS011;1107;48.654;9.250;2022-07-29T04:06:28;11.40;;;10.70;;
2201;SDS011;1107;48.654;9.250;2022-07-29T04:09:03;10.90;;;10.30;;
2201;SDS011;1107;48.654;9.250;2022-07-29T04:11:30;10.53;;;9.80;;
2201;SDS011;1107;48.654;9.250;2022-07-29T04:13:58;10.03;;;9.73;;
2201;SDS011;1107;48.654;9.250;2022-07-29T04:16:25;9.97;;;9.47;;
2201;SDS011;1107;48.654;9.250;2022-07-29T04:18:52;9.25;;;8.85;;
2201;SDS011;1107;48.654;9.250;2022-07-29T04:21:19;9.97;;;9.13;;
2201;SDS011;1107;48.654;9.250;2022-07-29T04:23:46;9.73;;;9.33;;
2201;SDS011;1107;48.654;9.250;2022-07-29T04:26:15;9.20;;;8.70;;
2201;SDS011;1107;48.654;9.250;2022-07-29T04:28:42;8.37;;;8.07;;
2201;SDS011;1107;48.654;9.250;2022-07-29T04:31:10;8.03;;;7.73;;
2201;SDS011;1107;48.654;9.250;2022-07-29T04:33:38;7.70;;;7.40;;
2201;SDS011;1107;48.654;9.250;2022-07-29T04:36:05;7.90;;;7.40;;
2201;SDS011;1107;48.654;9.250;2022-07-29T04:38:32;8.20;;;7.60;;
2201;SDS011;1107;48.654;9.250;2022-07-29T04:40:59;8.00;;;7.70;;
2201;SDS011;1107;48.654;9.250;2022-07-29T04:43:26;8.00;;;7.60;;
2201;SDS011;1107;48.654;9.250;2022-07-29T04:45:54;7.30;;;7.00;;
2201;SDS011;1107;48.654;9.250;2022-07-29T04:48:22;6.93;;;6.63;;
2201;SDS011;1107;48.654;9.250;2022-07-29T04:50:49;6.47;;;6.00;;
2201;SDS011;1107;48.654;9.250;2022-07-29T04:53:16;6.87;;;6.53;;
2201;SDS011;1107;48.654;9.250;2022-07-29T04:55:43;6.90;;;6.60;;
2201;SDS011;1107;48.654;9.250;2022-07-29T04:58:11;6.90;;;6.60;;
2201;SDS011;1107;48.654;9.250;2022-07-29T05:00:38;6.60;;;6.30;;
2201;SDS011;1107;48.654;9.250;2022-07-29T05:03:05;7.30;;;6.90;;
2201;SDS011;1107;48.654;9.250;2022-07-29T05:05:34;7.40;;;7.10;;
2201;SDS011;1107;48.654;9.250;2022-07-29T05:08:01;8.83;;;8.53;;
2201;SDS011;1107;48.654;9.250;2022-07-29T05:10:28;8.73;;;7.90;;
2201;SDS011;1107;48.654;9.250;2022-07-29T05:12:55;6.90;;;6.60;;
2201;SDS011;1107;48.654;9.250;2022-07-29T05:15:22;7.10;;;6.80;;
2201;SDS011;1107;48.654;9.250;2022-07-29T05:17:49;7.10;;;6.43;;
2201;SDS011;1107;48.654;9.250;2022-07-29T05:20:16;6.60;;;6.30;;
2201;SDS011;1107;48.654;9.250;2022-07-29T05:22:45;8.50;;;8.00;;
2201;SDS011;1107;48.654;9.250;2022-07-29T05:25:13;8.63;;;7.90;;
2201;SDS011;1107;48.654;9.250;2022-07-29T05:27:40;9.07;;;8.33;;
2201;SDS011;1107;48.654;9.250;2022-07-29T05:30:07;9.00;;;8.40;;
2201;SDS011;1107;48.654;9.250;2022-07-29T05:32:34;8.33;;;7.93;;
2201;SDS011;1107;48.654;9.250;2022-07-29T05:35:02;19.20;;;9.00;;
2201;SDS011;1107;48.654;9.250;2022-07-29T05:37:29;8.07;;;7.67;;
2201;SDS011;1107;48.654;9.250;2022-07-29T05:39:57;9.47;;;8.20;;
2201;SDS011;1107;48.654;9.250;2022-07-29T05:42:24;9.10;;;8.60;;
2201;SDS011;1107;48.654;9.250;2022-07-29T05:44:52;8.07;;;7.77;;
2201;SDS011;1107;48.654;9.250;2022-07-29T05:47:19;6.63;;;6.33;;
2201;SDS011;1107;48.654;9.250;2022-07-29T05:49:46;6.00;;;5.40;;
2201;SDS011;1107;48.654;9.250;2022-07-29T05:52:14;5.73;;;5.53;;
2201;SDS011;1107;48.654;9.250;2022-07-29T05:54:41;5.57;;;5.27;;
2201;SDS011;1107;48.654;9.250;2022-07-29T05:57:10;5.00;;;4.80;;
2201;SDS011;1107;48.654;9.250;2022-07-29T05:59:42;5.37;;;5.17;;
2201;SDS011;1107;48.654;9.250;2022-07-29T06:02:09;5.73;;;5.33;;
2201;SDS011;1107;48.654;9.250;2022-07-29T06:04:36;4.80;;;4.60;;
2201;SDS011;1107;48.654;9.250;2022-07-29T06:07:03;7.83;;;4.87;;
2201;SDS011;1107;48.654;9.250;2022-07-29T06:09:30;5.60;;;5.13;;
2201;SDS011;1107;48.654;9.250;2022-07-29T06:11:57;5.07;;;4.87;;
2201;SDS011;1107;48.654;9.250;2022-07-29T06:14:26;8.03;;;5.07;;
2201;SDS011;1107;48.654;9.250;2022-07-29T06:16:53;5.10;;;4.70;;
2201;SDS011;1107;48.654;9.250;2022-07-29T06:19:20;5.80;;;5.30;;
2201;SDS011;1107;48.654;9.250;2022-07-29T06:21:47;4.90;;;4.70;;
2201;SDS011;1107;48.654;9.250;2022-07-29T06:24:14;5.63;;;5.43;;
2201;SDS011;1107;48.654;9.250;2022-07-29T06:26:42;7.73;;;5.07;;
2201;SDS011;1107;48.654;9.250;2022-07-29T06:29:09;6.10;;;5.60;;
2201;SDS011;1107;48.654;9.250;2022-07-29T06:31:38;5.50;;;5.10;;
2201;SDS011;1107;48.654;9.250;2022-07-29T06:34:05;5.83;;;5.63;;
2201;SDS011;1107;48.654;9.250;2022-07-29T06:36:34;6.03;;;5.73;;
2201;SDS011;1107;48.654;9.250;2022-07-29T06:39:03;6.00;;;5.70;;
2201;SDS011;1107;48.654;9.250;2022-07-29T06:41:31;6.03;;;5.63;;
2201;SDS011;1107;48.654;9.250;2022-07-29T06:43:58;5.10;;;4.90;;
2201;SDS011;1107;48.654;9.250;2022-07-29T06:46:25;5.17;;;4.83;;
2201;SDS011;1107;48.654;9.250;2022-07-29T06:48:54;5.23;;;4.83;;
2201;SDS011;1107;48.654;9.250;2022-07-29T06:51:21;9.03;;;4.60;;
2201;SDS011;1107;48.654;9.250;2022-07-29T06:53:48;4.97;;;4.67;;
2201;SDS011;1107;48.654;9.250;2022-07-29T06:56:16;4.90;;;4.70;;
2201;SDS011;1107;48.654;9.250;2022-07-29T06:58:43;4.90;;;4.60;;
2201;SDS011;1107;48.654;9.250;2022-07-29T07:01:10;4.50;;;4.30;;
2201;SDS011;1107;48.654;9.250;2022-07-29T07:03:37;4.50;;;4.30;;
2201;SDS011;1107;48.654;9.250;2022-07-29T07:06:05;5.07;;;4.60;;
2201;SDS011;1107;48.654;9.250;2022-07-29T07:08:33;6.27;;;4.40;;
2201;SDS011;1107;48.654;9.250;2022-07-29T07:11:00;5.70;;;4.33;;
2201;SDS011;1107;48.654;9.250;2022-07-29T07:13:27;4.70;;;4.40;;
2201;SDS011;1107;48.654;9.250;2022-07-29T07:15:59;5.20;;;4.80;;
2201;SDS011;1107;48.654;9.250;2022-07-29T07:18:26;5.03;;;4.83;;
2201;SDS011;1107;48.654;9.250;2022-07-29T07:20:53;4.87;;;4.67;;
2201;SDS011;1107;48.654;9.250;2022-07-29T07:23:22;4.60;;;4.20;;
2201;SDS011;1107;48.654;9.250;2022-07-29T07:25:49;4.30;;;4.10;;
2201;SDS011;1107;48.654;9.250;2022-07-29T07:28:17;4.20;;;4.00;;
2201;SDS011;1107;48.654;9.250;2022-07-29T07:30:45;4.60;;;4.40;;
2201;SDS011;1107;48.654;9.250;2022-07-29T07:33:12;4.83;;;4.57;;
2201;SDS011;1107;48.654;9.250;2022-07-29T07:35:39;4.83;;;4.53;;
2201;SDS011;1107;48.654;9.250;2022-07-29T07:38:06;5.30;;;4.90;;
2201;SDS011;1107;48.654;9.250;2022-07-29T07:40:35;5.40;;;4.70;;
2201;SDS011;1107;48.654;9.250;2022-07-29T07:43:02;4.57;;;4.27;;
2201;SDS011;1107;48.654;9.250;2022-07-29T07:45:29;4.70;;;4.47;;
2201;SDS011;1107;48.654;9.250;2022-07-29T07:47:57;4.80;;;4.60;;
2201;SDS011;1107;48.654;9.250;2022-07-29T07:50:24;4.63;;;4.43;;
2201;SDS011;1107;48.654;9.250;2022-07-29T07:52:52;5.50;;;5.00;;
2201;SDS011;1107;48.654;9.250;2022-07-29T07:55:22;4.50;;;4.30;;
2201;SDS011;1107;48.654;9.250;2022-07-29T07:57:51;5.07;;;4.60;;
2201;SDS011;1107;48.654;9.250;2022-07-29T08:00:19;4.80;;;4.60;;
2201;SDS011;1107;48.654;9.250;2022-07-29T08:02:47;5.07;;;4.77;;
2201;SDS011;1107;48.654;9.250;2022-07-29T08:05:14;4.63;;;4.20;;
2201;SDS011;1107;48.654;9.250;2022-07-29T08:07:43;4.90;;;4.50;;
2201;SDS011;1107;48.654;9.250;2022-07-29T08:10:11;4.83;;;4.50;;
2201;SDS011;1107;48.654;9.250;2022-07-29T08:12:38;4.50;;;4.30;;
2201;SDS011;1107;48.654;9.250;2022-07-29T08:15:07;5.00;;;4.80;;
2201;SDS011;1107;48.654;9.250;2022-07-29T08:17:35;4.90;;;4.70;;
2201;SDS011;1107;48.654;9.250;2022-07-29T08:20:02;4.40;;;4.20;;
2201;SDS011;1107;48.654;9.250;2022-07-29T08:22:30;4.93;;;4.63;;
2201;SDS011;1107;48.654;9.250;2022-07-29T08:24:57;6.83;;;6.43;;
2201;SDS011;1107;48.654;9.250;2022-07-29T08:27:24;5.63;;;4.97;;
2201;SDS011;1107;48.654;9.250;2022-07-29T08:29:54;7.93;;;7.17;;
2201;SDS011;1107;48.654;9.250;2022-07-29T08:32:23;5.40;;;5.10;;
2201;SDS011;1107;48.654;9.250;2022-07-29T08:34:50;5.57;;;5.27;;
2201;SDS011;1107;48.654;9.250;2022-07-29T08:37:17;5.40;;;5.20;;
2201;SDS011;1107;48.654;9.250;2022-07-29T08:39:44;5.80;;;5.60;;
2201;SDS011;1107;48.654;9.250;2022-07-29T08:42:11;4.80;;;4.60;;
2201;SDS011;1107;48.654;9.250;2022-07-29T08:44:38;5.17;;;4.97;;
2201;SDS011;1107;48.654;9.250;2022-07-29T08:47:05;5.43;;;5.23;;
2201;SDS011;1107;48.654;9.250;2022-07-29T08:49:34;6.10;;;5.80;;
2201;SDS011;1107;48.654;9.250;2022-07-29T08:52:02;5.40;;;5.20;;
2201;SDS011;1107;48.654;9.250;2022-07-29T08:54:29;5.40;;;5.20;;
2201;SDS011;1107;48.654;9.250;2022-07-29T08:56:56;8.90;;;5.33;;
2201;SDS011;1107;48.654;9.250;2022-07-29T08:59:27;5.30;;;5.10;;
2201;SDS011;1107;48.654;9.250;2022-07-29T09:01:56;5.40;;;4.97;;
2201;SDS011;1107;48.654;9.250;2022-07-29T09:04:26;5.47;;;5.17;;
2201;SDS011;1107;48.654;9.250;2022-07-29T09:06:58;7.70;;;7.23;;
2201;SDS011;1107;48.654;9.250;2022-07-29T09:09:29;5.57;;;5.37;;
2201;SDS011;1107;48.654;9.250;2022-07-29T09:11:56;5.97;;;5.67;;
2201;SDS011;1107;48.654;9.250;2022-07-29T09:14:25;5.47;;;5.27;;
2201;SDS011;1107;48.654;9.250;2022-07-29T09:16:53;5.90;;;5.50;;
2201;SDS011;1107;48.654;9.250;2022-07-29T09:19:25;5.70;;;5.30;;
2201;SDS011;1107;48.654;9.250;2022-07-29T09:21:54;6.23;;;5.30;;
2201;SDS011;1107;48.654;9.250;2022-07-29T09:24:25;5.60;;;5.40;;
2201;SDS011;1107;48.654;9.250;2022-07-29T09:26:53;5.90;;;5.70;;
2201;SDS011;1107;48.654;9.250;2022-07-29T09:29:21;6.13;;;5.87;;
2201;SDS011;1107;48.654;9.250;2022-07-29T09:31:50;6.30;;;5.90;;
2201;SDS011;1107;48.654;9.250;2022-07-29T09:34:21;6.30;;;6.10;;
2201;SDS011;1107;48.654;9.250;2022-07-29T09:36:49;6.60;;;6.30;;
2201;SDS011;1107;48.654;9.250;2022-07-29T09:39:27;6.37;;;6.07;;
2201;SDS011;1107;48.654;9.250;2022-07-29T09:41:56;6.57;;;6.27;;
2201;SDS011;1107;48.654;9.250;2022-07-29T09:44:25;7.27;;;5.67;;
2201;SDS011;1107;48.654;9.250;2022-07-29T09:46:53;6.07;;;5.87;;
2201;SDS011;1107;48.654;9.250;2022-07-29T09:49:24;6.20;;;5.90;;
2201;SDS011;1107;48.654;9.250;2022-07-29T09:52:03;6.50;;;6.20;;
2201;SDS011;1107;48.654;9.250;2022-07-29T09:54:33;6.70;;;6.40;;
2201;SDS011;1107;48.654;9.250;2022-07-29T09:57:03;6.90;;;6.50;;
2201;SDS011;1107;48.654;9.250;2022-07-29T09:59:30;7.07;;;6.50;;
2201;SDS011;1107;48.654;9.250;2022-07-29T10:01:58;6.43;;;6.13;;
2201;SDS011;1107;48.654;9.250;2022-07-29T10:04:35;7.07;;;6.60;;
2201;SDS011;1107;48.654;9.250;2022-07-29T10:07:04;6.73;;;6.13;;
2201;SDS011;1107;48.654;9.250;2022-07-29T10:09:32;6.53;;;6.27;;
2201;SDS011;1107;48.654;9.250;2022-07-29T10:12:03;6.97;;;6.43;;
2201;SDS011;1107;48.654;9.250;2022-07-29T10:14:36;6.90;;;6.60;;
2201;SDS011;1107;48.654;9.250;2022-07-29T10:17:04;6.93;;;6.63;;
2201;SDS011;1107;48.654;9.250;2022-07-29T10:19:32;6.47;;;6.17;;
2201;SDS011;1107;48.654;9.250;2022-07-29T10:22:00;7.03;;;6.53;;
2201;SDS011;1107;48.654;9.250;2022-07-29T10:24:29;7.00;;;6.43;;
2201;SDS011;1107;48.654;9.250;2022-07-29T10:26:59;6.77;;;6.30;;
2201;SDS011;1107;48.654;9.250;2022-07-29T10:29:28;6.70;;;6.20;;
2201;SDS011;1107;48.654;9.250;2022-07-29T10:32:08;7.50;;;7.20;;
2201;SDS011;1107;48.654;9.250;2022-07-29T10:34:50;7.07;;;6.77;;
2201;SDS011;1107;48.654;9.250;2022-07-29T10:37:53;7.03;;;6.63;;
2201;SDS011;1107;48.654;9.250;2022-07-29T10:40:36;7.30;;;7.00;;
2201;SDS011;1107;48.654;9.250;2022-07-29T10:43:37;7.17;;;6.70;;
2201;SDS011;1107;48.654;9.250;2022-07-29T10:46:09;8.17;;;7.43;;
2201;SDS011;1107;48.654;9.250;2022-07-29T10:51:51;7.77;;;7.20;;
2201;SDS011;1107;48.654;9.250;2022-07-29T10:54:42;7.93;;;6.63;;
2201;SDS011;1107;48.654;9.250;2022-07-29T10:57:21;7.20;;;6.90;;
2201;SDS011;1107;48.654;9.250;2022-07-29T11:02:52;7.60;;;7.10;;
2201;SDS011;1107;48.654;9.250;2022-07-29T11:05:21;7.20;;;6.90;;
2201;SDS011;1107;48.654;9.250;2022-07-29T11:10:51;8.03;;;7.53;;
2201;SDS011;1107;48.654;9.250;2022-07-29T11:16:14;7.27;;;6.97;;
2201;SDS011;1107;48.654;9.250;2022-07-29T11:21:47;7.67;;;7.07;;
2201;SDS011;1107;48.654;9.250;2022-07-29T11:24:17;6.10;;;5.80;;
2201;SDS011;1107;48.654;9.250;2022-07-29T11:29:38;7.33;;;6.73;;
2201;SDS011;1107;48.654;9.250;2022-07-29T11:32:12;6.73;;;6.33;;
2201;SDS011;1107;48.654;9.250;2022-07-29T11:34:41;7.37;;;6.83;;
2201;SDS011;1107;48.654;9.250;2022-07-29T11:37:16;6.20;;;5.80;;
2201;SDS011;1107;48.654;9.250;2022-07-29T11:39:45;5.50;;;4.83;;
2201;SDS011;1107;48.654;9.250;2022-07-29T11:45:22;3.70;;;2.40;;
2201;SDS011;1107;48.654;9.250;2022-07-29T11:47:58;3.00;;;2.80;;
2201;SDS011;1107;48.654;9.250;2022-07-29T11:50:27;7.80;;;3.10;;
2201;SDS011;1107;48.654;9.250;2022-07-29T11:52:56;2.90;;;2.70;;
2201;SDS011;1107;48.654;9.250;2022-07-29T11:55:24;2.77;;;2.57;;
2201;SDS011;1107;48.654;9.250;2022-07-29T11:57:52;3.00;;;2.80;;
2201;SDS011;1107;48.654;9.250;2022-07-29T12:00:24;2.87;;;2.67;;
2201;SDS011;1107;48.654;9.250;2022-07-29T12:02:54;2.90;;;2.70;;
2201;SDS011;1107;48.654;9.250;2022-07-29T12:05:31;2.90;;;2.70;;
2201;SDS011;1107;48.654;9.250;2022-07-29T12:08:06;2.63;;;2.43;;
2201;SDS011;1107;48.654;9.250;2022-07-29T12:10:35;3.00;;;2.80;;
2201;SDS011;1107;48.654;9.250;2022-07-29T12:13:02;2.83;;;2.67;;
2201;SDS011;1107;48.654;9.250;2022-07-29T12:15:30;3.10;;;2.90;;
2201;SDS011;1107;48.654;9.250;2022-07-29T12:17:57;2.87;;;2.67;;
2201;SDS011;1107;48.654;9.250;2022-07-29T12:20:24;2.93;;;2.73;;
2201;SDS011;1107;48.654;9.250;2022-07-29T12:22:53;3.30;;;3.10;;
2201;SDS011;1107;48.654;9.250;2022-07-29T12:25:22;3.60;;;3.40;;
2201;SDS011;1107;48.654;9.250;2022-07-29T12:27:59;3.30;;;3.10;;
2201;SDS011;1107;48.654;9.250;2022-07-29T12:30:37;4.10;;;3.90;;
2201;SDS011;1107;48.654;9.250;2022-07-29T12:33:13;4.07;;;3.77;;
2201;SDS011;1107;48.654;9.250;2022-07-29T12:35:45;4.70;;;4.30;;
2201;SDS011;1107;48.654;9.250;2022-07-29T12:38:15;5.13;;;4.93;;
2201;SDS011;1107;48.654;9.250;2022-07-29T12:40:43;5.37;;;5.17;;
2201;SDS011;1107;48.654;9.250;2022-07-29T12:43:11;6.27;;;5.80;;
2201;SDS011;1107;48.654;9.250;2022-07-29T12:45:42;6.40;;;6.00;;
2201;SDS011;1107;48.654;9.250;2022-07-29T12:48:10;6.60;;;6.20;;
2201;SDS011;1107;48.654;9.250;2022-07-29T12:53:29;6.20;;;5.70;;
2201;SDS011;1107;48.654;9.250;2022-07-29T12:55:56;6.13;;;5.73;;
2201;SDS011;1107;48.654;9.250;2022-07-29T12:58:27;6.30;;;5.80;;
2201;SDS011;1107;48.654;9.250;2022-07-29T13:00:59;5.10;;;4.90;;
2201;SDS011;1107;48.654;9.250;2022-07-29T13:03:28;6.33;;;5.83;;
2201;SDS011;1107;48.654;9.250;2022-07-29T13:05:55;5.97;;;5.70;;
2201;SDS011;1107;48.654;9.250;2022-07-29T13:08:22;6.60;;;6.10;;
2201;SDS011;1107;48.654;9.250;2022-07-29T13:10:51;5.67;;;5.30;;
2201;SDS011;1107;48.654;9.250;2022-07-29T13:13:18;5.63;;;5.43;;
2201;SDS011;1107;48.654;9.250;2022-07-29T13:15:45;6.90;;;6.50;;
2201;SDS011;1107;48.654;9.250;2022-07-29T13:18:31;7.23;;;6.50;;
2201;SDS011;1107;48.654;9.250;2022-07-29T13:21:09;6.63;;;6.03;;
2201;SDS011;1107;48.654;9.250;2022-07-29T13:23:37;6.47;;;5.97;;
2201;SDS011;1107;48.654;9.250;2022-07-29T13:26:06;6.70;;;6.30;;
2201;SDS011;1107;48.654;9.250;2022-07-29T13:28:34;6.47;;;6.07;;
2201;SDS011;1107;48.654;9.250;2022-07-29T13:31:01;6.93;;;6.63;;
2201;SDS011;1107;48.654;9.250;2022-07-29T13:33:29;7.70;;;7.30;;
2201;SDS011;1107;48.654;9.250;2022-07-29T13:35:56;7.00;;;6.70;;
2201;SDS011;1107;48.654;9.250;2022-07-29T13:38:23;6.43;;;6.13;;
2201;SDS011;1107;48.654;9.250;2022-07-29T13:40:50;8.40;;;7.40;;
2201;SDS011;1107;48.654;9.250;2022-07-29T13:43:19;17.23;;;7.90;;
2201;SDS011;1107;48.654;9.250;2022-07-29T13:45:46;8.40;;;7.90;;
2201;SDS011;1107;48.654;9.250;2022-07-29T13:48:13;8.70;;;8.30;;
2201;SDS011;1107;48.654;9.250;2022-07-29T13:50:40;8.47;;;7.77;;
2201;SDS011;1107;48.654;9.250;2022-07-29T13:53:07;8.93;;;8.43;;
2201;SDS011;1107;48.654;9.250;2022-07-29T13:55:34;9.37;;;8.97;;
2201;SDS011;1107;48.654;9.250;2022-07-29T13:58:01;8.80;;;8.40;;
2201;SDS011;1107;48.654;9.250;2022-07-29T14:00:30;8.23;;;7.83;;
2201;SDS011;1107;48.654;9.250;2022-07-29T14:02:57;7.90;;;7.40;;
2201;SDS011;1107;48.654;9.250;2022-07-29T14:05:24;8.20;;;7.80;;
2201;SDS011;1107;48.654;9.250;2022-07-29T14:07:51;7.77;;;7.37;;
2201;SDS011;1107;48.654;9.250;2022-07-29T14:10:18;9.60;;;8.80;;
2201;SDS011;1107;48.654;9.250;2022-07-29T14:12:45;9.87;;;9.37;;
2201;SDS011;1107;48.654;9.250;2022-07-29T14:15:12;9.57;;;9.17;;
2201;SDS011;1107;48.654;9.250;2022-07-29T14:17:40;10.17;;;9.57;;
2201;SDS011;1107;48.654;9.250;2022-07-29T14:20:08;9.33;;;8.73;;
2201;SDS011;1107;48.654;9.250;2022-07-29T14:22:35;8.93;;;8.53;;
2201;SDS011;1107;48.654;9.250;2022-07-29T14:25:04;10.00;;;9.40;;
2201;SDS011;1107;48.654;9.250;2022-07-29T14:27:31;8.23;;;7.73;;
2201;SDS011;1107;48.654;9.250;2022-07-29T14:29:58;7.67;;;7.37;;
2201;SDS011;1107;48.654;9.250;2022-07-29T14:32:25;8.73;;;7.83;;
2201;SDS011;1107;48.654;9.250;2022-07-29T14:34:54;8.77;;;7.73;;
2201;SDS011;1107;48.654;9.250;2022-07-29T14:37:21;8.53;;;7.60;;
2201;SDS011;1107;48.654;9.250;2022-07-29T14:39:48;7.23;;;6.93;;
2201;SDS011;1107;48.654;9.250;2022-07-29T14:42:15;7.30;;;7.00;;
2201;SDS011;1107;48.654;9.250;2022-07-29T14:44:42;8.23;;;7.63;;
2201;SDS011;1107;48.654;9.250;2022-07-29T14:47:09;6.80;;;6.50;;
2201;SDS011;1107;48.654;9.250;2022-07-29T14:49:36;8.00;;;7.43;;
2201;SDS011;1107;48.654;9.250;2022-07-29T14:52:04;8.37;;;7.87;;
2201;SDS011;1107;48.654;9.250;2022-07-29T14:54:31;8.80;;;8.27;;
2201;SDS011;1107;48.654;9.250;2022-07-29T14:56:58;9.40;;;8.87;;
2201;SDS011;1107;48.654;9.250;2022-07-29T14:59:26;10.07;;;9.40;;
2201;SDS011;1107;48.654;9.250;2022-07-29T15:01:53;9.70;;;9.20;;
2201;SDS011;1107;48.654;9.250;2022-07-29T15:04:20;9.60;;;9.10;;
2201;SDS011;1107;48.654;9.250;2022-07-29T15:06:47;10.57;;;10.07;;
2201;SDS011;1107;48.654;9.250;2022-07-29T15:09:16;10.30;;;9.70;;
2201;SDS011;1107;48.654;9.250;2022-07-29T15:11:43;9.50;;;9.10;;
2201;SDS011;1107;48.654;9.250;2022-07-29T15:14:10;8.43;;;8.00;;
2201;SDS011;1107;48.654;9.250;2022-07-29T15:16:37;9.50;;;8.70;;
2201;SDS011;1107;48.654;9.250;2022-07-29T15:19:05;8.67;;;8.20;;
2201;SDS011;1107;48.654;9.250;2022-07-29T15:21:32;8.90;;;8.20;;
2201;SDS011;1107;48.654;9.250;2022-07-29T15:23:59;8.80;;;8.30;;
2201;SDS011;1107;48.654;9.250;2022-07-29T15:26:27;8.60;;;8.20;;
2201;SDS011;1107;48.654;9.250;2022-07-29T15:28:54;8.60;;;7.93;;
2201;SDS011;1107;48.654;9.250;2022-07-29T15:31:21;8.83;;;8.23;;
2201;SDS011;1107;48.654;9.250;2022-07-29T15:33:49;8.47;;;7.80;;
2201;SDS011;1107;48.654;9.250;2022-07-29T15:36:16;14.07;;;8.17;;
2201;SDS011;1107;48.654;9.250;2022-07-29T15:38:43;7.90;;;7.40;;
2201;SDS011;1107;48.654;9.250;2022-07-29T15:41:13;7.07;;;6.67;;
2201;SDS011;1107;48.654;9.250;2022-07-29T15:43:42;8.00;;;7.50;;
2201;SDS011;1107;48.654;9.250;2022-07-29T15:46:11;7.47;;;7.17;;
2201;SDS011;1107;48.654;9.250;2022-07-29T15:48:56;8.10;;;7.40;;
2201;SDS011;1107;48.654;9.250;2022-07-29T15:51:23;7.80;;;7.50;;